createdAt,value
2022-11-27T00:04:22.435Z,27.75
2022-11-27T00:09:44.303Z,28.20
2022-11-27T00:15:06.829Z,28.85
2022-11-27T00:20:29.790Z,27.75
2022-11-27T00:25:52.573Z,26.80
2022-11-27T00:31:20.843Z,27.45
2022-11-27T00:36:45.369Z,28.80
2022-11-27T00:42:10.034Z,26.63
2022-11-27T00:47:31.802Z,27.92
2022-11-27T00:52:53.570Z,26.20
2022-11-27T00:58:15.352Z,25.90
2022-11-27T01:03:37.161Z,25.17
2022-11-27T01:08:59.922Z,25.05
2022-11-27T01:14:21.885Z,24.75
2022-11-27T01:19:43.776Z,24.15
2022-11-27T01:25:06.207Z,23.40
2022-11-27T01:30:28.028Z,25.58
2022-11-27T01:35:57.900Z,26.40
2022-11-27T01:41:23.020Z,22.48
2022-11-27T01:46:48.602Z,24.88
2022-11-27T01:52:25.866Z,24.47
2022-11-27T01:57:52.183Z,24.38
2022-11-27T02:03:14.049Z,24.60
2022-11-27T02:08:35.904Z,24.30
2022-11-27T02:14:09.703Z,25.63
2022-11-27T02:20:09.997Z,26.17
2022-11-27T02:25:47.079Z,25.60
2022-11-27T02:31:37.524Z,26.08
2022-11-27T02:37:31.281Z,25.92
2022-11-27T02:43:02.251Z,28.60
2022-11-27T02:48:33.274Z,26.38
2022-11-27T02:53:59.211Z,27.45
2022-11-27T02:59:22.755Z,26.30
2022-11-27T03:04:54.134Z,27.80
2022-11-27T03:10:31.961Z,27.52
2022-11-27T03:16:20.435Z,26.25
2022-11-27T03:21:58.659Z,28.35
2022-11-27T03:27:31.698Z,27.80
2022-11-27T03:32:53.762Z,30.00
2022-11-27T03:38:15.750Z,30.05
2022-11-27T03:43:47.987Z,30.33
2022-11-27T03:49:24.540Z,31.35
2022-11-27T03:55:01.593Z,30.40
2022-11-27T04:00:24.238Z,29.85
2022-11-27T04:05:46.019Z,30.70
2022-11-27T04:11:07.787Z,30.88
2022-11-27T04:16:29.690Z,32.28
2022-11-27T04:21:51.439Z,32.30
2022-11-27T04:27:13.218Z,38.58
2022-11-27T04:32:34.970Z,39.22
2022-11-27T04:37:57.301Z,38.55
2022-11-27T04:43:19.772Z,37.45
2022-11-27T04:48:41.548Z,40.75
2022-11-27T04:54:03.428Z,35.63
2022-11-27T04:59:25.203Z,35.17
2022-11-27T05:04:47.000Z,36.05
2022-11-27T05:10:09.087Z,36.67
2022-11-27T05:15:30.874Z,37.28
2022-11-27T05:21:01.203Z,37.63
2022-11-27T05:26:22.990Z,35.80
2022-11-27T05:31:44.979Z,35.88
2022-11-27T05:37:06.777Z,37.38
2022-11-27T05:42:28.585Z,35.58
2022-11-27T05:47:50.406Z,38.20
2022-11-27T05:53:12.223Z,35.42
2022-11-27T05:58:34.473Z,35.15
2022-11-27T06:03:56.251Z,37.05
2022-11-27T06:09:18.030Z,37.67
2022-11-27T06:14:40.035Z,37.00
2022-11-27T06:20:01.986Z,37.47
2022-11-27T06:25:24.137Z,37.83
2022-11-27T06:30:45.960Z,39.15
2022-11-27T06:36:08.298Z,39.45
2022-11-27T06:41:30.317Z,39.75
2022-11-27T06:46:53.218Z,40.05
2022-11-27T06:52:15.115Z,40.78
2022-11-27T06:57:36.883Z,41.20
2022-11-27T07:02:58.653Z,41.45
2022-11-27T07:08:21.337Z,39.97
2022-11-27T07:13:43.094Z,37.60
2022-11-27T07:19:06.857Z,38.53
2022-11-27T07:24:28.670Z,38.10
2022-11-27T07:29:50.576Z,38.03
2022-11-27T07:35:12.360Z,38.17
2022-11-27T07:40:34.174Z,43.15
2022-11-27T07:45:56.250Z,42.90
2022-11-27T07:51:20.702Z,40.10
2022-11-27T07:56:42.628Z,40.97
2022-11-27T08:02:04.446Z,39.03
2022-11-27T08:07:30.381Z,41.45
2022-11-27T08:12:52.193Z,41.72
2022-11-27T08:18:14.040Z,39.97
2022-11-27T08:23:35.818Z,44.10
2022-11-27T08:28:58.063Z,40.13
2022-11-27T08:34:19.866Z,41.22
2022-11-27T08:39:41.656Z,41.38
2022-11-27T08:45:03.723Z,39.10
2022-11-27T08:50:25.619Z,39.53
2022-11-27T08:55:47.714Z,39.72
2022-11-27T09:01:21.589Z,39.25
2022-11-27T09:06:43.543Z,39.42
2022-11-27T09:12:05.611Z,41.10
2022-11-27T09:17:27.479Z,39.63
2022-11-27T09:22:49.256Z,40.53
2022-11-27T09:28:11.048Z,41.85
2022-11-27T09:33:35.008Z,42.92
2022-11-27T09:38:59.150Z,41.65
2022-11-27T09:44:23.739Z,41.45
2022-11-27T09:49:58.614Z,40.10
2022-11-27T09:55:32.326Z,40.10
2022-11-27T10:00:54.225Z,39.75
2022-11-27T10:06:32.958Z,40.65
2022-11-27T10:12:06.225Z,38.25
2022-11-27T10:17:49.431Z,38.72
2022-11-27T10:23:38.615Z,39.55
2022-11-27T10:29:03.276Z,39.78
2022-11-27T10:34:34.292Z,40.88
2022-11-27T10:40:01.693Z,39.78
2022-11-27T10:45:29.234Z,38.38
2022-11-27T10:50:51.867Z,37.45
2022-11-27T10:56:13.615Z,37.40
2022-11-27T11:01:47.460Z,38.78
2022-11-27T11:07:29.519Z,36.15
2022-11-27T11:13:06.662Z,39.20
2022-11-27T11:18:32.177Z,39.10
2022-11-27T11:24:23.666Z,36.38
2022-11-27T11:29:51.445Z,36.10
2022-11-27T11:35:33.467Z,35.53
2022-11-27T11:41:02.143Z,35.75
2022-11-27T11:46:27.196Z,36.38
2022-11-27T11:52:09.375Z,34.78
2022-11-27T11:57:56.458Z,34.17
2022-11-27T12:03:32.178Z,35.78
2022-11-27T12:09:04.089Z,36.23
2022-11-27T12:14:49.598Z,36.70
2022-11-27T12:20:20.795Z,29.23
2022-11-27T12:25:54.019Z,36.40
2022-11-27T12:31:39.295Z,35.65
2022-11-27T12:37:23.220Z,37.95
2022-11-27T12:43:09.593Z,39.55
2022-11-27T12:54:07.450Z,37.65
2022-11-27T12:59:37.833Z,38.28
2022-11-27T13:05:11.665Z,37.72
2022-11-27T13:10:40.399Z,36.25
2022-11-27T13:16:18.956Z,36.33
2022-11-27T13:21:42.558Z,33.80
2022-11-27T13:27:09.932Z,36.67
2022-11-27T13:32:47.756Z,35.45
2022-11-27T13:38:23.874Z,37.85
2022-11-27T13:43:47.284Z,35.40
2022-11-27T13:49:18.173Z,33.58
2022-11-27T13:54:51.603Z,35.35
2022-11-27T14:00:14.376Z,34.75
2022-11-27T14:05:40.202Z,33.90
2022-11-27T14:11:11.006Z,34.50
2022-11-27T14:16:35.320Z,35.85
2022-11-27T14:21:57.143Z,35.67
2022-11-27T14:27:23.978Z,35.90
2022-11-27T14:32:48.355Z,34.03
2022-11-27T14:38:11.247Z,35.28
2022-11-27T14:43:34.354Z,34.65
2022-11-27T14:48:56.539Z,37.25
2022-11-27T14:54:39.232Z,36.72
2022-11-27T15:00:16.307Z,36.00
2022-11-27T15:05:39.109Z,37.47
2022-11-27T15:11:03.215Z,37.92
2022-11-27T15:16:28.179Z,38.80
2022-11-27T15:21:50.591Z,38.60
2022-11-27T15:27:15.075Z,38.70
2022-11-27T15:32:51.841Z,39.55
2022-11-27T15:38:18.305Z,38.72
2022-11-27T15:43:40.052Z,40.28
2022-11-27T15:49:01.878Z,40.03
2022-11-27T15:54:24.473Z,39.05
2022-11-27T15:59:46.280Z,39.97
2022-11-27T16:05:08.918Z,39.60
2022-11-27T16:10:30.692Z,42.08
2022-11-27T16:15:52.459Z,41.15
2022-11-27T16:21:16.595Z,40.25
2022-11-27T16:26:38.676Z,40.67
2022-11-27T16:32:00.513Z,43.65
2022-11-27T16:37:22.376Z,41.80
2022-11-27T16:42:44.152Z,42.78
2022-11-27T16:48:06.507Z,42.33
2022-11-27T16:53:28.278Z,43.85
2022-11-27T16:58:51.058Z,41.65
2022-11-27T17:04:19.257Z,42.95
2022-11-27T17:09:41.028Z,42.83
2022-11-27T17:15:02.898Z,42.00
2022-11-27T17:20:24.668Z,39.97
2022-11-27T17:25:46.444Z,60.78
2022-11-27T17:31:28.339Z,39.72
2022-11-27T17:36:50.169Z,40.85
2022-11-27T17:42:14.572Z,38.10
2022-11-27T17:47:37.947Z,39.92
2022-11-27T17:52:59.710Z,38.10
2022-11-27T17:58:21.555Z,38.90
2022-11-27T18:03:43.431Z,38.55
2022-11-27T18:09:05.269Z,35.47
2022-11-27T18:14:27.073Z,36.65
2022-11-27T18:19:51.499Z,37.38
2022-11-27T18:25:13.361Z,35.97
2022-11-27T18:30:35.317Z,36.45
2022-11-27T18:35:57.080Z,37.92
2022-11-27T18:41:23.901Z,38.10
2022-11-27T18:46:45.667Z,36.95
2022-11-27T18:52:08.373Z,35.97
2022-11-27T18:57:30.172Z,37.88
2022-11-27T19:02:52.034Z,49.33
2022-11-27T19:08:13.856Z,57.47
2022-11-27T19:13:36.987Z,60.78
2022-11-27T19:19:00.480Z,62.25
2022-11-27T19:24:22.245Z,58.03
2022-11-27T19:29:44.259Z,55.50
2022-11-27T19:35:07.412Z,55.03
2022-11-27T19:40:31.245Z,57.22
2022-11-27T19:45:53.171Z,58.78
2022-11-27T19:51:15.746Z,59.05
2022-11-27T19:56:37.529Z,63.90
2022-11-27T20:01:59.373Z,63.22
2022-11-27T20:07:21.230Z,67.40
2022-11-27T20:12:43.058Z,67.32
2022-11-27T20:18:04.958Z,65.55
2022-11-27T20:23:26.987Z,68.70
2022-11-27T20:28:49.734Z,62.30
2022-11-27T20:34:19.246Z,69.07
2022-11-27T20:39:41.237Z,69.88
2022-11-27T20:45:03.370Z,67.20
2022-11-27T20:50:25.192Z,70.63
2022-11-27T20:55:47.248Z,69.55
2022-11-27T21:01:25.961Z,70.20
2022-11-27T21:06:48.015Z,69.07
2022-11-27T21:12:09.771Z,70.15
2022-11-27T21:17:32.099Z,69.78
2022-11-27T21:22:53.893Z,66.68
2022-11-27T21:28:15.782Z,67.57
2022-11-27T21:33:38.040Z,64.07
2022-11-27T21:39:01.239Z,62.13
2022-11-27T21:44:24.593Z,63.50
2022-11-27T21:49:50.024Z,66.22
2022-11-27T21:55:12.397Z,62.00
2022-11-27T22:00:35.684Z,60.67
2022-11-27T22:06:03.097Z,58.53
2022-11-27T22:11:27.403Z,60.80
2022-11-27T22:16:49.291Z,61.22
2022-11-27T22:22:11.451Z,59.95
2022-11-27T22:27:33.332Z,60.38
2022-11-27T22:32:58.370Z,58.13
2022-11-27T22:38:20.222Z,60.15
2022-11-27T22:43:42.754Z,60.08
2022-11-27T22:49:06.381Z,61.25
2022-11-27T22:54:28.199Z,56.90
2022-11-27T22:59:50.135Z,58.78
2022-11-27T23:05:11.926Z,61.53
2022-11-27T23:10:33.771Z,63.38
2022-11-27T23:15:55.649Z,59.70
2022-11-27T23:21:19.848Z,63.40
2022-11-27T23:26:42.376Z,60.35
2022-11-27T23:32:04.410Z,64.38
2022-11-27T23:37:27.475Z,59.47
2022-11-27T23:42:49.291Z,56.67
2022-11-27T23:48:11.156Z,56.42
2022-11-27T23:53:32.981Z,57.20
2022-11-27T23:58:55.933Z,55.70
